首页
METAR-TAF:

METAR-TAF

机场 :

波隆納機場

博洛尼亚, 意大利

纬度: 44-32N, 经度: 011-18E, 海拔: 36米

当前天气观测

该预报发布于16分钟前的05:50 UTC
风速3节,风向西南,在西转西南之间变化
温度 9°C
湿度 93%
气压 1013 hPa
能見度: 1200
多云层高于200英尺
轻雾

METAR: LIPE 190550Z 23003KT 190V250 1200 R12/P1500N R30/P1500N BR BKN002 09/08 Q1013

时间: 07:06 (06:06 UTC)

预报

该预报发布于1小时和6分钟前的05:00 UTC
预报有效从19日的 06点(UTC)到 20日的 06点(UTC)
风速8节,风向
能見度: 4000
散云层高于500英尺
多云层高于1000英尺
雨, 轻雾
短暂存在
从 19日的 06点(UTC)到 19日的 12点(UTC)
能見度: 2000
成为
从 19日的 16点(UTC)到 19日的 18点(UTC)
短暂存在
从 19日的 20点(UTC)到 20日的 06点(UTC)
能見度: 1500
碎片雾

TAF: LIPE 190500Z 1906/2006 10008KT 4000 RA BR SCT005 BKN010 TEMPO 1906/1912 2000 BECMG 1916/1918 NSW TEMPO 1920/2006 1500 BCFG

超过4000个机场的气象观测和天气预报(METAR&TAF报告)。

可查询的气象台以黄色和红色小点在地图上表示。

将鼠标移到小点上方,可查看气象台名称。

然后点击查看天气观测和预报。

如需切换地图:点击带黑十字的绿色按钮放大地图;点击带横线的绿色按钮缩小地图;或者点击绿色箭头查看邻近地区的地图。


METAR-TAF: